createdAt,value
2018-08-30T00:02:02.920Z,19.08
2018-08-30T00:04:30.179Z,19.09
2018-08-30T00:06:57.353Z,19.01
2018-08-30T00:09:24.735Z,19.00
2018-08-30T00:11:51.713Z,18.95
2018-08-30T00:14:18.706Z,18.91
2018-08-30T00:16:45.708Z,18.90
2018-08-30T00:19:12.680Z,18.98
2018-08-30T00:21:39.664Z,18.86
2018-08-30T00:24:06.662Z,18.78
2018-08-30T00:26:33.767Z,18.78
2018-08-30T00:29:00.745Z,18.46
2018-08-30T00:31:28.061Z,18.70
2018-08-30T00:33:55.153Z,18.65
2018-08-30T00:36:22.132Z,18.70
2018-08-30T00:38:49.188Z,18.67
2018-08-30T00:41:16.210Z,18.58
2018-08-30T00:43:43.171Z,18.57
2018-08-30T00:46:10.169Z,18.59
2018-08-30T00:48:37.599Z,18.54
2018-08-30T00:51:04.663Z,18.39
2018-08-30T00:53:31.652Z,18.39
2018-08-30T00:55:58.792Z,18.38
2018-08-30T00:58:25.778Z,18.33
2018-08-30T01:00:52.788Z,18.28
2018-08-30T01:03:19.856Z,18.32
2018-08-30T01:05:46.867Z,18.28
2018-08-30T01:08:14.192Z,18.25
2018-08-30T01:10:41.180Z,18.27
2018-08-30T01:13:08.183Z,18.24
2018-08-30T01:15:35.533Z,18.18
2018-08-30T01:18:02.556Z,18.14
2018-08-30T01:20:29.576Z,18.15
2018-08-30T01:22:56.619Z,18.15
2018-08-30T01:25:23.687Z,18.17
2018-08-30T01:27:50.684Z,18.20
2018-08-30T01:30:17.928Z,18.11
2018-08-30T01:32:44.991Z,18.14
2018-08-30T01:35:12.000Z,18.13
2018-08-30T01:37:39.099Z,18.12
2018-08-30T01:40:06.256Z,18.15
2018-08-30T01:42:33.279Z,18.12
2018-08-30T01:45:00.353Z,18.11
2018-08-30T01:47:27.363Z,18.21
2018-08-30T01:49:54.696Z,18.16
2018-08-30T01:52:21.676Z,18.11
2018-08-30T01:54:48.832Z,18.10
2018-08-30T01:57:15.831Z,18.15
2018-08-30T01:59:42.820Z,18.17
2018-08-30T02:02:09.899Z,18.12
2018-08-30T02:04:37.047Z,18.09
2018-08-30T02:07:04.199Z,18.15
2018-08-30T02:09:31.274Z,18.17
2018-08-30T02:11:58.851Z,18.11
2018-08-30T02:14:25.806Z,18.11
2018-08-30T02:16:52.795Z,18.12
2018-08-30T02:19:20.083Z,18.10
2018-08-30T02:21:47.099Z,18.03
2018-08-30T02:24:14.102Z,17.97
2018-08-30T02:26:41.116Z,17.95
2018-08-30T02:29:08.111Z,17.91
2018-08-30T02:31:35.932Z,17.89
2018-08-30T02:34:02.914Z,17.87
2018-08-30T02:36:29.907Z,17.87
2018-08-30T02:38:56.913Z,17.86
2018-08-30T02:41:23.972Z,17.86
2018-08-30T02:43:51.048Z,17.87
2018-08-30T02:46:18.314Z,17.85
2018-08-30T02:48:45.305Z,17.76
2018-08-30T02:51:12.286Z,17.69
2018-08-30T02:53:39.279Z,17.57
2018-08-30T02:56:06.302Z,17.46
2018-08-30T02:58:33.431Z,17.36
2018-08-30T03:01:00.440Z,17.25
2018-08-30T03:03:27.415Z,17.10
2018-08-30T03:05:54.516Z,17.00
2018-08-30T03:08:21.779Z,16.96
2018-08-30T03:10:48.791Z,16.87
2018-08-30T03:13:16.254Z,16.83
2018-08-30T03:15:43.223Z,16.76
2018-08-30T03:18:10.232Z,16.67
2018-08-30T03:20:37.498Z,16.65
2018-08-30T03:23:04.556Z,16.61
2018-08-30T03:25:31.545Z,16.57
2018-08-30T03:27:58.617Z,16.49
2018-08-30T03:30:25.905Z,16.43
2018-08-30T03:32:53.033Z,16.43
2018-08-30T03:35:20.093Z,16.36
2018-08-30T03:37:47.165Z,16.34
2018-08-30T03:40:14.169Z,16.33
2018-08-30T03:42:41.178Z,16.35
2018-08-30T03:45:08.259Z,16.36
2018-08-30T03:47:35.240Z,16.26
2018-08-30T03:50:02.270Z,16.29
2018-08-30T03:52:29.625Z,16.28
2018-08-30T03:54:56.703Z,16.21
2018-08-30T03:57:23.605Z,16.22
2018-08-30T03:59:50.627Z,16.26
2018-08-30T04:02:17.615Z,16.18
2018-08-30T04:04:44.629Z,16.17
2018-08-30T04:07:11.732Z,16.14
2018-08-30T04:09:38.804Z,16.17
2018-08-30T04:12:05.807Z,16.14
2018-08-30T04:14:32.803Z,16.20
2018-08-30T04:16:59.900Z,16.18
2018-08-30T04:19:26.897Z,16.17
2018-08-30T04:21:53.888Z,16.15
2018-08-30T04:24:20.888Z,16.15
2018-08-30T04:26:47.863Z,16.18
2018-08-30T04:29:14.939Z,16.19
2018-08-30T04:31:41.944Z,16.12
2018-08-30T04:34:09.024Z,16.12
2018-08-30T04:36:36.020Z,15.83
2018-08-30T04:39:04.551Z,16.16
2018-08-30T04:41:31.537Z,16.19
2018-08-30T04:43:58.534Z,16.15
2018-08-30T04:46:26.082Z,16.14
2018-08-30T04:48:53.100Z,16.18
2018-08-30T04:51:20.101Z,16.18
2018-08-30T04:53:47.107Z,16.19
2018-08-30T04:56:14.164Z,16.18
2018-08-30T04:58:41.153Z,16.18
2018-08-30T05:01:08.572Z,16.24
2018-08-30T05:03:35.639Z,16.19
2018-08-30T05:06:02.635Z,16.20
2018-08-30T05:08:29.916Z,16.24
2018-08-30T05:10:56.960Z,16.20
2018-08-30T05:13:23.955Z,16.21
2018-08-30T05:15:50.972Z,16.22
2018-08-30T05:18:18.816Z,16.25
2018-08-30T05:20:45.805Z,16.24
2018-08-30T05:23:13.175Z,16.24
2018-08-30T05:25:40.164Z,16.25
2018-08-30T05:28:07.521Z,16.23
2018-08-30T05:30:34.563Z,16.21
2018-08-30T05:33:01.651Z,16.25
2018-08-30T05:35:28.839Z,16.27
2018-08-30T05:37:55.842Z,16.28
2018-08-30T05:40:22.833Z,16.25
2018-08-30T05:42:49.915Z,16.27
2018-08-30T05:45:16.928Z,16.30
2018-08-30T05:47:43.919Z,16.33
2018-08-30T05:50:10.906Z,16.33
2018-08-30T05:52:38.301Z,16.32
2018-08-30T05:55:05.383Z,16.32
2018-08-30T05:57:32.452Z,16.34
2018-08-30T06:00:00.468Z,16.37
2018-08-30T06:02:28.451Z,16.36
2018-08-30T06:04:55.455Z,16.37
2018-08-30T06:07:22.515Z,16.39
2018-08-30T06:09:49.780Z,16.35
2018-08-30T06:12:16.776Z,16.37
2018-08-30T06:14:43.768Z,16.39
2018-08-30T06:17:10.759Z,16.35
2018-08-30T06:19:37.751Z,16.35
2018-08-30T06:22:04.773Z,16.37
2018-08-30T06:24:31.764Z,16.35
2018-08-30T06:26:59.363Z,16.37
2018-08-30T06:29:26.425Z,16.38
2018-08-30T06:31:53.375Z,16.36
2018-08-30T06:34:20.400Z,16.40
2018-08-30T06:36:47.463Z,16.40
2018-08-30T06:39:14.471Z,16.38
2018-08-30T06:41:41.707Z,16.34
2018-08-30T06:44:08.685Z,16.34
2018-08-30T06:46:35.763Z,16.39
2018-08-30T06:49:03.342Z,16.38
2018-08-30T06:51:30.264Z,16.40
2018-08-30T06:53:57.239Z,16.37
2018-08-30T06:56:24.327Z,16.40
2018-08-30T06:58:51.271Z,16.32
2018-08-30T07:01:18.413Z,16.34
2018-08-30T07:03:45.387Z,16.31
2018-08-30T07:06:12.484Z,16.37
2018-08-30T07:08:39.588Z,16.34
2018-08-30T07:11:06.712Z,16.36
2018-08-30T07:13:33.700Z,16.35
2018-08-30T07:16:00.760Z,16.34
2018-08-30T07:18:27.766Z,16.34
2018-08-30T07:20:54.979Z,16.37
2018-08-30T07:23:23.510Z,16.36
2018-08-30T07:25:51.699Z,16.38
2018-08-30T07:28:18.723Z,16.43
2018-08-30T07:30:45.752Z,16.44
2018-08-30T07:33:12.786Z,16.46
2018-08-30T07:35:41.115Z,16.45
2018-08-30T07:38:08.217Z,16.46
2018-08-30T07:40:35.329Z,16.43
2018-08-30T07:43:02.359Z,16.45
2018-08-30T07:45:29.755Z,16.46
2018-08-30T07:47:57.125Z,16.47
2018-08-30T07:50:24.227Z,16.49
2018-08-30T07:52:52.017Z,16.50
2018-08-30T07:55:19.534Z,16.50
2018-08-30T07:57:50.702Z,16.49
2018-08-30T08:00:18.630Z,16.52
2018-08-30T08:02:46.964Z,16.54
2018-08-30T08:05:14.429Z,16.52
2018-08-30T08:07:42.304Z,16.54
2018-08-30T08:10:10.704Z,16.59
2018-08-30T08:12:39.120Z,16.62
2018-08-30T08:15:06.399Z,16.60
2018-08-30T08:17:35.024Z,16.58
2018-08-30T08:20:02.684Z,16.61
2018-08-30T08:22:30.452Z,16.55
2018-08-30T08:24:57.552Z,16.60
2018-08-30T08:27:24.942Z,16.57
2018-08-30T08:29:52.714Z,16.58
2018-08-30T08:32:21.128Z,16.59
2018-08-30T08:34:48.739Z,16.59
2018-08-30T08:37:16.397Z,16.61
2018-08-30T08:39:43.441Z,16.61
2018-08-30T08:42:10.971Z,16.61
2018-08-30T08:44:37.980Z,16.64
2018-08-30T08:47:07.461Z,16.62
2018-08-30T08:49:39.484Z,16.65
2018-08-30T08:52:11.886Z,16.70
2018-08-30T08:54:42.477Z,16.70
2018-08-30T08:57:13.745Z,16.70
2018-08-30T08:59:44.113Z,16.75
2018-08-30T09:02:14.049Z,16.74
2018-08-30T09:04:44.697Z,16.78
2018-08-30T09:07:15.743Z,16.83
2018-08-30T09:09:47.114Z,16.79
2018-08-30T09:12:19.776Z,16.75
2018-08-30T09:15:00.939Z,16.78
2018-08-30T09:17:30.810Z,16.73
2018-08-30T09:20:05.512Z,16.71
2018-08-30T09:22:36.928Z,16.70
2018-08-30T09:25:06.098Z,16.75
2018-08-30T09:27:36.259Z,16.78
2018-08-30T09:30:07.548Z,16.77
2018-08-30T09:32:47.684Z,16.80
2018-08-30T09:35:21.790Z,16.88
2018-08-30T09:37:58.985Z,16.95
2018-08-30T09:40:30.103Z,17.00
2018-08-30T09:42:58.783Z,17.05
2018-08-30T09:45:25.784Z,17.05
2018-08-30T09:47:52.800Z,16.99
2018-08-30T09:50:20.060Z,17.03
2018-08-30T09:52:53.272Z,17.06
2018-08-30T09:55:20.655Z,16.98
2018-08-30T09:57:47.638Z,17.05
2018-08-30T10:00:20.612Z,17.11
2018-08-30T10:02:49.218Z,17.02
2018-08-30T10:05:16.576Z,17.06
2018-08-30T10:07:43.567Z,16.97
2018-08-30T10:10:10.772Z,17.01
2018-08-30T10:12:37.840Z,17.07
2018-08-30T10:15:05.631Z,17.14
2018-08-30T10:17:32.939Z,17.25
2018-08-30T10:20:00.009Z,17.27
2018-08-30T10:22:27.137Z,17.25
2018-08-30T10:24:54.474Z,17.38
2018-08-30T10:27:21.648Z,17.27
2018-08-30T10:29:48.708Z,17.20
2018-08-30T10:32:15.948Z,17.17
2018-08-30T10:34:43.239Z,17.11
2018-08-30T10:37:10.297Z,17.17
2018-08-30T10:39:37.343Z,17.16
2018-08-30T10:42:04.405Z,17.16
2018-08-30T10:44:31.400Z,17.07
2018-08-30T10:46:58.695Z,17.10
2018-08-30T10:49:25.855Z,17.17
2018-08-30T10:51:52.843Z,17.13
2018-08-30T10:54:19.991Z,17.19
2018-08-30T10:56:47.288Z,17.17
2018-08-30T10:59:14.809Z,17.00
2018-08-30T11:01:41.826Z,16.94
2018-08-30T11:04:09.043Z,16.87
2018-08-30T11:06:36.323Z,16.78
2018-08-30T11:09:04.868Z,16.62
2018-08-30T11:11:31.978Z,16.65
2018-08-30T11:13:59.096Z,16.59
2018-08-30T11:16:26.078Z,16.54
2018-08-30T11:18:53.266Z,16.47
2018-08-30T11:21:20.724Z,16.50
2018-08-30T11:23:48.018Z,16.49
2018-08-30T11:26:15.387Z,16.50
2018-08-30T11:28:42.915Z,16.39
2018-08-30T11:31:10.262Z,16.38
2018-08-30T11:33:37.239Z,16.44
2018-08-30T11:36:04.307Z,16.39
2018-08-30T11:38:31.490Z,16.38
2018-08-30T11:40:58.517Z,16.29
2018-08-30T11:43:25.952Z,16.35
2018-08-30T11:45:53.128Z,16.31
2018-08-30T11:48:20.432Z,16.33
2018-08-30T11:50:47.609Z,16.39
2018-08-30T11:53:14.755Z,16.33
2018-08-30T11:55:42.095Z,16.22
2018-08-30T11:58:09.419Z,16.20
2018-08-30T12:00:36.593Z,16.20
2018-08-30T12:03:03.656Z,16.25
2018-08-30T12:05:30.700Z,16.18
2018-08-30T12:07:58.198Z,16.14
2018-08-30T12:10:26.073Z,15.99
2018-08-30T12:12:53.836Z,16.01
2018-08-30T12:15:20.999Z,16.00
2018-08-30T12:17:48.163Z,16.02
2018-08-30T12:20:16.451Z,16.00
2018-08-30T12:22:50.450Z,15.96
2018-08-30T12:25:17.935Z,15.96
2018-08-30T12:27:45.136Z,16.10
2018-08-30T12:30:12.426Z,16.01
2018-08-30T12:32:39.681Z,15.87
2018-08-30T12:35:06.810Z,15.89
2018-08-30T12:37:33.775Z,15.84
2018-08-30T12:40:00.892Z,15.90
2018-08-30T12:42:27.920Z,15.93
2018-08-30T12:44:55.325Z,15.84
2018-08-30T12:47:22.486Z,15.82
2018-08-30T12:49:49.597Z,15.91
2018-08-30T12:52:17.021Z,15.78
2018-08-30T12:54:44.088Z,15.83
2018-08-30T12:57:11.128Z,15.85
2018-08-30T12:59:38.319Z,15.81
2018-08-30T13:02:05.345Z,15.81
2018-08-30T13:04:32.342Z,15.88
2018-08-30T13:06:59.449Z,15.89
2018-08-30T13:09:27.412Z,15.90
2018-08-30T13:11:55.574Z,15.79
2018-08-30T13:14:23.035Z,15.76
2018-08-30T13:16:49.905Z,15.85
2018-08-30T13:19:17.289Z,15.77
2018-08-30T13:21:44.413Z,15.71
2018-08-30T13:24:11.417Z,15.78
2018-08-30T13:26:38.509Z,15.80
2018-08-30T13:29:05.489Z,15.82
2018-08-30T13:31:32.615Z,15.82
2018-08-30T13:33:59.755Z,15.75
2018-08-30T13:36:26.991Z,15.72
2018-08-30T13:38:54.157Z,15.75
2018-08-30T13:41:21.697Z,15.74
2018-08-30T13:43:48.592Z,15.73
2018-08-30T13:46:15.457Z,15.60
2018-08-30T13:48:42.847Z,15.56
2018-08-30T13:51:10.163Z,15.60
2018-08-30T13:53:36.926Z,15.46
2018-08-30T13:56:04.074Z,15.54
2018-08-30T13:58:31.346Z,15.53
2018-08-30T14:00:58.408Z,15.51
2018-08-30T14:03:25.235Z,15.56
2018-08-30T14:05:52.331Z,15.67
2018-08-30T14:08:19.413Z,15.56
2018-08-30T14:10:46.521Z,15.58
2018-08-30T14:13:13.694Z,15.66
2018-08-30T14:15:40.292Z,15.61
2018-08-30T14:18:07.324Z,15.55
2018-08-30T14:20:34.332Z,15.48
2018-08-30T14:23:01.432Z,15.62
2018-08-30T14:25:28.526Z,15.51
2018-08-30T14:27:55.512Z,15.53
2018-08-30T14:30:22.533Z,15.67
2018-08-30T14:32:50.016Z,15.60
2018-08-30T14:35:16.966Z,15.67
2018-08-30T14:37:43.940Z,15.71
2018-08-30T14:40:11.027Z,15.80
2018-08-30T14:42:37.933Z,15.82
2018-08-30T14:45:05.345Z,15.95
2018-08-30T14:47:33.018Z,15.98
2018-08-30T14:50:00.102Z,16.02
2018-08-30T14:52:27.059Z,16.01
2018-08-30T14:54:54.039Z,15.92
2018-08-30T14:57:21.092Z,15.88
2018-08-30T14:59:48.434Z,16.02
2018-08-30T15:02:15.428Z,15.98
2018-08-30T15:04:42.399Z,15.98
2018-08-30T15:07:09.660Z,16.09
2018-08-30T15:09:36.578Z,16.15
2018-08-30T15:12:03.903Z,16.05
2018-08-30T15:14:31.037Z,16.08
2018-08-30T15:16:57.971Z,16.09
2018-08-30T15:19:25.209Z,16.20
2018-08-30T15:21:52.367Z,16.19
2018-08-30T15:24:19.343Z,16.21
2018-08-30T15:26:46.414Z,16.27
2018-08-30T15:29:13.554Z,16.30
2018-08-30T15:31:40.404Z,16.22
2018-08-30T15:34:07.468Z,16.31
2018-08-30T15:36:34.652Z,16.22
2018-08-30T15:39:01.642Z,16.24
2018-08-30T15:41:28.720Z,16.18
2018-08-30T15:43:55.784Z,16.24
2018-08-30T15:46:22.800Z,16.19
2018-08-30T15:48:50.384Z,16.21
2018-08-30T15:51:17.329Z,16.12
2018-08-30T15:53:44.399Z,16.15
2018-08-30T15:56:11.375Z,16.21
2018-08-30T15:58:38.391Z,16.14
2018-08-30T16:01:05.416Z,16.16
2018-08-30T16:03:32.490Z,16.16
2018-08-30T16:05:59.548Z,16.12
2018-08-30T16:08:26.537Z,16.14
2018-08-30T16:10:53.546Z,16.28
2018-08-30T16:13:20.540Z,16.27
2018-08-30T16:15:47.618Z,16.28
2018-08-30T16:18:14.640Z,16.32
2018-08-30T16:20:41.625Z,16.45
2018-08-30T16:23:17.285Z,16.50
2018-08-30T16:25:44.164Z,16.63
2018-08-30T16:28:11.161Z,16.60
2018-08-30T16:30:38.548Z,16.57
2018-08-30T16:33:05.531Z,16.63
2018-08-30T16:35:32.520Z,16.63
2018-08-30T16:38:00.036Z,16.77
2018-08-30T16:40:27.016Z,16.59
2018-08-30T16:42:54.023Z,16.56
2018-08-30T16:45:21.038Z,16.55
2018-08-30T16:47:48.042Z,16.52
2018-08-30T16:50:15.091Z,16.44
2018-08-30T16:52:42.164Z,16.42
2018-08-30T16:55:09.164Z,16.38
2018-08-30T16:57:36.155Z,16.39
2018-08-30T17:00:03.219Z,16.48
2018-08-30T17:02:30.219Z,16.40
2018-08-30T17:04:57.196Z,16.34
2018-08-30T17:07:24.238Z,16.33
2018-08-30T17:09:51.299Z,16.35
2018-08-30T17:12:18.420Z,16.41
2018-08-30T17:14:45.967Z,16.50
2018-08-30T17:17:13.084Z,16.58
2018-08-30T17:19:39.935Z,16.59
2018-08-30T17:22:06.927Z,16.55
2018-08-30T17:24:33.952Z,16.55
2018-08-30T17:27:00.934Z,16.55
2018-08-30T17:29:27.955Z,16.47
2018-08-30T17:31:55.056Z,16.50
2018-08-30T17:34:22.437Z,16.37
2018-08-30T17:36:49.470Z,16.31
2018-08-30T17:39:16.515Z,16.25
2018-08-30T17:41:43.768Z,16.27
2018-08-30T17:44:10.856Z,16.23
2018-08-30T17:46:37.863Z,16.16
2018-08-30T17:49:05.234Z,16.14
2018-08-30T17:51:32.023Z,16.00
2018-08-30T17:53:59.317Z,16.01
2018-08-30T17:56:26.471Z,15.92
2018-08-30T17:58:53.581Z,15.95
2018-08-30T18:01:20.629Z,15.88
2018-08-30T18:03:47.632Z,15.85
2018-08-30T18:06:14.631Z,15.77
2018-08-30T18:08:42.125Z,15.81
2018-08-30T18:11:09.212Z,15.79
2018-08-30T18:13:36.331Z,15.68
2018-08-30T18:16:03.588Z,15.72
2018-08-30T18:18:30.585Z,15.72
2018-08-30T18:20:57.549Z,15.66
2018-08-30T18:23:24.557Z,15.51
2018-08-30T18:25:51.527Z,15.61
2018-08-30T18:28:18.530Z,15.65
2018-08-30T18:30:45.601Z,15.39
2018-08-30T18:33:12.604Z,15.37
2018-08-30T18:35:39.766Z,15.48
2018-08-30T18:38:06.875Z,15.35
2018-08-30T18:40:33.924Z,15.27
2018-08-30T18:43:01.248Z,15.21
2018-08-30T18:45:28.531Z,15.09
2018-08-30T18:47:55.787Z,15.12
2018-08-30T18:50:22.844Z,15.12
2018-08-30T18:52:49.823Z,15.04
2018-08-30T18:55:17.155Z,15.03
2018-08-30T18:57:44.128Z,14.98
2018-08-30T19:00:11.107Z,15.16
2018-08-30T19:02:38.104Z,15.22
2018-08-30T19:05:05.099Z,15.04
2018-08-30T19:07:32.083Z,14.90
2018-08-30T19:09:59.416Z,14.82
2018-08-30T19:12:26.387Z,14.72
2018-08-30T19:14:53.370Z,14.70
2018-08-30T19:17:26.155Z,14.68
2018-08-30T19:19:53.467Z,14.59
2018-08-30T19:22:20.459Z,14.68
2018-08-30T19:24:53.143Z,14.59
2018-08-30T19:27:20.122Z,14.49
2018-08-30T19:29:52.754Z,14.43
2018-08-30T19:32:19.758Z,14.46
2018-08-30T19:34:46.808Z,14.44
2018-08-30T19:37:13.861Z,14.37
2018-08-30T19:39:40.871Z,14.31
2018-08-30T19:42:07.919Z,14.31
2018-08-30T19:44:34.979Z,14.26
2018-08-30T19:47:02.333Z,14.19
2018-08-30T19:49:29.360Z,14.07
2018-08-30T19:51:56.335Z,14.10
2018-08-30T19:54:23.574Z,14.14
2018-08-30T19:56:50.547Z,14.02
2018-08-30T19:59:17.612Z,14.01
2018-08-30T20:01:44.784Z,13.96
2018-08-30T20:04:11.769Z,13.93
2018-08-30T20:06:38.754Z,13.85
2018-08-30T20:09:05.827Z,13.80
2018-08-30T20:11:32.809Z,13.77
2018-08-30T20:14:00.072Z,13.74
2018-08-30T20:16:27.136Z,13.70
2018-08-30T20:18:54.107Z,13.68
2018-08-30T20:21:21.114Z,13.62
2018-08-30T20:23:48.121Z,13.59
2018-08-30T20:26:15.122Z,13.59
2018-08-30T20:28:42.091Z,13.58
2018-08-30T20:31:09.068Z,13.57
2018-08-30T20:33:36.330Z,13.53
2018-08-30T20:36:03.391Z,13.53
2018-08-30T20:38:30.376Z,13.53
2018-08-30T20:40:57.726Z,13.51
2018-08-30T20:43:24.707Z,13.44
2018-08-30T20:45:51.687Z,13.43
2018-08-30T20:48:18.759Z,13.40
2018-08-30T20:50:45.751Z,13.40
2018-08-30T20:53:12.723Z,13.32
2018-08-30T20:55:39.699Z,13.24
2018-08-30T20:58:06.698Z,13.18
2018-08-30T21:00:33.780Z,13.19
2018-08-30T21:03:00.796Z,13.25
2018-08-30T21:05:27.783Z,13.21
2018-08-30T21:07:54.759Z,13.15
2018-08-30T21:10:21.848Z,13.18
2018-08-30T21:12:48.867Z,13.10
2018-08-30T21:15:15.932Z,13.04
2018-08-30T21:17:42.988Z,13.03
2018-08-30T21:20:10.141Z,13.12
2018-08-30T21:22:37.209Z,12.96
2018-08-30T21:25:04.227Z,12.95
2018-08-30T21:27:31.252Z,12.89
2018-08-30T21:29:58.199Z,12.84
2018-08-30T21:32:25.291Z,13.01
2018-08-30T21:34:52.271Z,12.90
2018-08-30T21:37:19.244Z,12.87
2018-08-30T21:39:46.247Z,12.78
2018-08-30T21:42:13.223Z,12.76
2018-08-30T21:44:40.707Z,12.82
2018-08-30T21:47:07.695Z,12.72
2018-08-30T21:49:34.903Z,12.64
2018-08-30T21:52:02.137Z,12.71
2018-08-30T21:54:29.109Z,12.75
2018-08-30T21:56:56.086Z,12.67
2018-08-30T21:59:23.383Z,12.64
2018-08-30T22:01:50.514Z,12.59
2018-08-30T22:04:17.504Z,12.52
2018-08-30T22:06:44.593Z,12.51
2018-08-30T22:09:12.603Z,12.49
2018-08-30T22:11:40.033Z,12.55
2018-08-30T22:14:07.371Z,12.43
2018-08-30T22:16:34.367Z,12.56
2018-08-30T22:19:01.461Z,12.68
2018-08-30T22:21:28.491Z,12.83
2018-08-30T22:23:55.592Z,12.96
2018-08-30T22:26:22.592Z,13.24
2018-08-30T22:28:49.602Z,12.99
2018-08-30T22:31:16.599Z,12.79
2018-08-30T22:33:43.584Z,12.52
2018-08-30T22:36:10.712Z,12.37
2018-08-30T22:38:37.791Z,12.29
2018-08-30T22:41:04.919Z,12.19
2018-08-30T22:43:32.061Z,12.16
2018-08-30T22:45:59.148Z,12.11
2018-08-30T22:48:26.185Z,12.12
2018-08-30T22:50:53.197Z,12.16
2018-08-30T22:53:20.282Z,12.15
2018-08-30T22:55:47.251Z,12.05
2018-08-30T22:58:14.219Z,12.06
2018-08-30T23:00:41.195Z,12.01
2018-08-30T23:03:08.186Z,11.90
2018-08-30T23:05:35.319Z,11.99
2018-08-30T23:08:02.302Z,11.88
2018-08-30T23:10:29.347Z,11.86
2018-08-30T23:12:56.410Z,11.84
2018-08-30T23:15:23.392Z,11.79
2018-08-30T23:17:50.367Z,11.80
2018-08-30T23:20:17.801Z,11.81
2018-08-30T23:22:44.866Z,11.81
2018-08-30T23:25:11.871Z,11.77
2018-08-30T23:27:39.019Z,11.70
2018-08-30T23:30:06.499Z,11.72
2018-08-30T23:32:33.559Z,11.70
2018-08-30T23:35:00.624Z,11.73
2018-08-30T23:37:27.668Z,11.76
2018-08-30T23:39:54.755Z,11.62
2018-08-30T23:42:21.779Z,11.50
2018-08-30T23:44:48.838Z,11.43
2018-08-30T23:47:15.898Z,11.40
2018-08-30T23:49:42.977Z,11.44
2018-08-30T23:52:09.951Z,11.39
2018-08-30T23:54:37.100Z,11.43
2018-08-30T23:57:04.437Z,11.33
2018-08-30T23:59:43.444Z,11.37
